Pagina principale
METAR-TAF:

METAR-TAF

Aeroporti :

Orange, Francia

latitudine: 44-08N, longitudine: 004-50E, altezza: 60 m

Osservazione

Il bollettino è stato emesso 27 minuti fa, alle 10:00 UTC
Vento 15 kt da nord, variando fra nord-ovest e nord/nord-est
Temperature 18°C
Umidità 68%
Pressione 1008 hPa
Visibilità 10 km o più
nessuna nube inferiore a 1500 m e nessun cumulonembo

METAR: LFMO 071000Z AUTO 35015KT 320V020 CAVOK 18/12 Q1008 NOSIG

Ora: 12:27 (10:27 UTC)

Previsione

Il bollettino è stato emesso 2 ore e 27 minuti fa, alle 08:00 UTC
Previsione valida dal 07 alle 09 UTC al 08 alle 09 UTC
Vento 15 kt da nord
Visibilità 10 km o più
nessuna nube inferiore a 1500 m e nessun cumulonembo
Evoluzione graduale
dal 07 alle 18 UTC al 07 alle 20 UTC
Vento 8 kt da nord/nord-ovest
Evoluzione graduale
dal 08 alle 06 UTC al 08 alle 08 UTC
Vento 15 kt da nord con raffiche fino a 25 kt

TAF: LFMO 070800Z 0709/0809 35015KT CAVOK BECMG 0718/0720 33008KT BECMG 0806/0808 35015G25KT

Osservazioni e previsioni meteorologiche di più di 4000 aeroporti (messaggi METAR e TAF).

Le stazioni disponibili sono rappresentate dai dischi gialli e rossi sulla carta.

Puntare il mouse per vedere il nome della stazione.

Clicca sopra per visualizzare le osservazioni e previsioni meteorologiche.

Per cambiare la mappa : fare clic sui pulsanti verdi con una croce nera per ingrandire, il pulsante verde con un trattino per diminuire, o sulla freccia verde per le mappe adiacenti.


METAR-TAF: